createdAt,value
2023-03-29T00:00:08.182Z,0.60
2023-03-29T00:02:42.116Z,1.13
2023-03-29T00:05:16.954Z,0.73
2023-03-29T00:08:01.947Z,0.73
2023-03-29T00:10:35.656Z,0.47
2023-03-29T00:13:08.855Z,1.03
2023-03-29T00:15:42.540Z,0.60
2023-03-29T00:18:15.738Z,1.00
2023-03-29T00:20:56.478Z,1.17
2023-03-29T00:23:29.666Z,0.97
2023-03-29T00:26:03.271Z,0.90
2023-03-29T00:28:37.487Z,0.77
2023-03-29T00:31:13.114Z,1.60
2023-03-29T00:33:46.829Z,0.67
2023-03-29T00:36:22.120Z,0.90
2023-03-29T00:38:56.865Z,1.23
2023-03-29T00:41:30.039Z,0.93
2023-03-29T00:44:04.434Z,0.40
2023-03-29T00:46:37.693Z,1.80
2023-03-29T00:49:13.877Z,0.50
2023-03-29T00:51:48.129Z,0.40
2023-03-29T00:54:21.396Z,0.70
2023-03-29T00:56:54.603Z,0.40
2023-03-29T00:59:29.252Z,1.23
2023-03-29T01:02:05.418Z,0.80
2023-03-29T01:04:45.443Z,0.80
2023-03-29T01:07:48.176Z,0.63
2023-03-29T01:10:24.332Z,1.70
2023-03-29T01:13:02.117Z,0.80
2023-03-29T01:15:35.824Z,0.83
2023-03-29T01:18:09.140Z,0.70
2023-03-29T01:20:51.539Z,0.50
2023-03-29T01:23:27.772Z,1.23
2023-03-29T01:26:04.968Z,0.70
2023-03-29T01:28:41.022Z,0.60
2023-03-29T01:31:25.572Z,0.50
2023-03-29T01:34:04.340Z,0.90
2023-03-29T01:36:44.062Z,0.50
2023-03-29T01:39:18.924Z,0.50
2023-03-29T01:42:07.201Z,0.80
2023-03-29T01:44:40.377Z,0.90
2023-03-29T01:47:21.621Z,1.03
2023-03-29T01:49:59.845Z,0.40
2023-03-29T01:52:35.953Z,0.50
2023-03-29T01:55:09.321Z,1.23
2023-03-29T01:57:43.687Z,1.23
2023-03-29T02:00:19.766Z,0.50
2023-03-29T02:02:54.258Z,0.50
2023-03-29T02:05:29.628Z,1.10
2023-03-29T02:08:03.488Z,0.67
2023-03-29T02:10:37.558Z,1.17
2023-03-29T02:13:11.067Z,0.70
2023-03-29T02:15:45.505Z,1.77
2023-03-29T02:18:19.121Z,1.63
2023-03-29T02:20:53.800Z,0.50
2023-03-29T02:23:38.818Z,0.70
2023-03-29T02:26:14.390Z,0.60
2023-03-29T02:28:47.797Z,1.73
2023-03-29T02:31:34.037Z,0.50
2023-03-29T02:34:12.300Z,0.57
2023-03-29T02:36:51.160Z,0.70
2023-03-29T02:39:25.422Z,1.37
2023-03-29T02:41:59.013Z,0.70
2023-03-29T02:44:33.630Z,0.60
2023-03-29T02:47:09.392Z,0.70
2023-03-29T02:49:42.667Z,0.83
2023-03-29T02:52:17.843Z,0.50
2023-03-29T02:54:52.341Z,0.60
2023-03-29T02:57:26.643Z,0.50
2023-03-29T03:00:01.134Z,0.63
2023-03-29T03:02:35.503Z,0.50
2023-03-29T03:05:09.176Z,0.50
2023-03-29T03:07:42.411Z,0.70
2023-03-29T03:10:15.937Z,1.00
2023-03-29T03:12:49.117Z,0.70
2023-03-29T03:15:22.300Z,0.50
2023-03-29T03:17:56.056Z,0.40
2023-03-29T03:20:29.346Z,0.60
2023-03-29T03:23:05.798Z,0.40
2023-03-29T03:25:39.038Z,0.60
2023-03-29T03:28:12.514Z,0.67
2023-03-29T03:30:45.723Z,0.50
2023-03-29T03:33:19.179Z,0.90
2023-03-29T03:35:52.766Z,0.83
2023-03-29T03:38:25.984Z,1.10
2023-03-29T03:41:00.943Z,1.47
2023-03-29T03:43:34.958Z,1.27
2023-03-29T03:46:08.704Z,0.60
2023-03-29T03:48:41.968Z,0.60
2023-03-29T03:51:15.267Z,1.43
2023-03-29T03:53:48.468Z,0.47
2023-03-29T03:56:21.667Z,0.53
2023-03-29T03:58:54.870Z,1.00
2023-03-29T04:01:28.125Z,2.40
2023-03-29T04:04:01.472Z,1.03
2023-03-29T04:06:34.929Z,1.00
2023-03-29T04:09:09.337Z,1.87
2023-03-29T04:11:42.560Z,1.17
2023-03-29T04:14:15.756Z,0.50
2023-03-29T04:16:48.945Z,0.83
2023-03-29T04:19:22.359Z,1.30
2023-03-29T04:21:55.897Z,0.90
2023-03-29T04:24:29.081Z,0.70
2023-03-29T04:27:02.316Z,0.50
2023-03-29T04:29:36.129Z,1.13
2023-03-29T04:32:09.283Z,0.60
2023-03-29T04:34:42.528Z,0.70
2023-03-29T04:37:16.323Z,0.60
2023-03-29T04:39:50.539Z,1.63
2023-03-29T04:42:24.189Z,0.60
2023-03-29T04:44:57.500Z,0.67
2023-03-29T04:47:31.230Z,0.70
2023-03-29T04:50:04.618Z,0.60
2023-03-29T04:52:37.925Z,1.30
2023-03-29T04:55:12.048Z,0.77
2023-03-29T04:57:45.281Z,0.73
2023-03-29T05:00:20.286Z,2.70
2023-03-29T05:02:54.625Z,1.23
2023-03-29T05:05:27.860Z,1.07
2023-03-29T05:08:01.584Z,0.97
2023-03-29T05:10:34.763Z,1.20
2023-03-29T05:13:07.956Z,1.20
2023-03-29T05:15:42.359Z,0.97
2023-03-29T05:18:15.523Z,1.07
2023-03-29T05:20:48.687Z,0.93
2023-03-29T05:23:22.218Z,0.50
2023-03-29T05:25:55.441Z,0.93
2023-03-29T05:28:28.658Z,2.00
2023-03-29T05:31:04.338Z,0.80
2023-03-29T05:33:37.839Z,0.80
2023-03-29T05:36:13.613Z,1.10
2023-03-29T05:38:47.014Z,1.10
2023-03-29T05:41:20.252Z,1.73
2023-03-29T05:43:53.475Z,1.00
2023-03-29T05:46:26.978Z,1.00
2023-03-29T05:49:00.794Z,1.77
2023-03-29T05:51:35.364Z,1.50
2023-03-29T05:54:08.533Z,1.90
2023-03-29T05:56:42.019Z,1.93
2023-03-29T05:59:15.400Z,0.93
2023-03-29T06:01:48.616Z,1.77
2023-03-29T06:04:21.975Z,0.87
2023-03-29T06:06:55.324Z,0.70
2023-03-29T06:09:28.766Z,1.60
2023-03-29T06:12:01.976Z,0.83
2023-03-29T06:14:36.408Z,1.13
2023-03-29T06:17:09.773Z,0.83
2023-03-29T06:19:44.637Z,0.80
2023-03-29T06:22:17.898Z,0.90
2023-03-29T06:24:51.333Z,1.70
2023-03-29T06:27:24.859Z,1.57
2023-03-29T06:29:58.413Z,0.90
2023-03-29T06:32:32.175Z,1.43
2023-03-29T06:35:05.532Z,1.17
2023-03-29T06:37:49.260Z,0.90
2023-03-29T06:40:23.016Z,2.87
2023-03-29T06:42:59.670Z,0.90
2023-03-29T06:45:34.091Z,1.47
2023-03-29T06:48:08.148Z,0.53
2023-03-29T06:50:41.448Z,1.03
2023-03-29T06:53:15.692Z,1.07
2023-03-29T06:55:50.217Z,2.30
2023-03-29T06:58:23.495Z,1.27
2023-03-29T07:01:02.096Z,0.63
2023-03-29T07:03:36.343Z,0.70
2023-03-29T07:06:10.133Z,1.00
2023-03-29T07:08:43.704Z,0.83
2023-03-29T07:11:18.756Z,1.27
2023-03-29T07:13:51.932Z,1.00
2023-03-29T07:16:25.178Z,0.60
2023-03-29T07:18:58.780Z,0.70
2023-03-29T07:21:33.377Z,0.60
2023-03-29T07:24:08.657Z,0.87
2023-03-29T07:26:52.403Z,1.30
2023-03-29T07:29:29.588Z,0.73
2023-03-29T07:32:02.782Z,0.80
2023-03-29T07:34:37.164Z,0.73
2023-03-29T07:37:10.589Z,0.80
2023-03-29T07:39:43.767Z,0.87
2023-03-29T07:42:17.037Z,1.53
2023-03-29T07:44:50.523Z,0.83
2023-03-29T07:47:24.652Z,1.10
2023-03-29T07:49:59.129Z,2.30
2023-03-29T07:52:32.812Z,1.27
2023-03-29T07:55:07.189Z,1.23
2023-03-29T07:57:41.137Z,0.97
2023-03-29T08:00:19.608Z,1.20
2023-03-29T08:02:53.008Z,1.23
2023-03-29T08:05:40.199Z,2.33
2023-03-29T08:08:14.813Z,1.97
2023-03-29T08:10:48.047Z,2.23
2023-03-29T08:13:21.287Z,1.20
2023-03-29T08:15:55.524Z,2.10
2023-03-29T08:18:28.714Z,1.47
2023-03-29T08:21:02.204Z,2.20
2023-03-29T08:23:35.702Z,2.00
2023-03-29T08:26:09.479Z,2.10
2023-03-29T08:28:43.129Z,1.33
2023-03-29T08:31:16.599Z,1.63
2023-03-29T08:33:49.850Z,0.70
2023-03-29T08:36:23.103Z,1.00
2023-03-29T08:38:57.033Z,1.87
2023-03-29T08:41:39.360Z,1.07
2023-03-29T08:44:21.880Z,0.90
2023-03-29T08:47:00.966Z,2.40
2023-03-29T08:49:35.869Z,2.97
2023-03-29T08:52:16.509Z,1.43
2023-03-29T08:54:52.059Z,2.33
2023-03-29T08:57:27.991Z,1.77
2023-03-29T09:00:02.946Z,1.57
2023-03-29T09:02:36.540Z,1.00
2023-03-29T09:05:20.225Z,2.00
2023-03-29T09:07:54.012Z,1.00
2023-03-29T09:10:32.661Z,1.53
2023-03-29T09:13:12.008Z,1.30
2023-03-29T09:15:49.882Z,2.33
2023-03-29T09:18:27.689Z,1.53
2023-03-29T09:21:02.099Z,1.03
2023-03-29T09:23:44.569Z,1.47
2023-03-29T09:26:36.971Z,1.10
2023-03-29T09:29:20.827Z,1.53
2023-03-29T09:31:55.925Z,2.30
2023-03-29T09:34:34.471Z,1.87
2023-03-29T09:37:12.109Z,1.27
2023-03-29T09:39:45.302Z,2.30
2023-03-29T09:42:19.713Z,1.30
2023-03-29T09:44:54.735Z,1.50
2023-03-29T09:47:30.164Z,1.80
2023-03-29T09:50:06.527Z,1.40
2023-03-29T09:52:41.707Z,0.77
2023-03-29T09:55:16.090Z,1.07
2023-03-29T09:57:50.112Z,1.40
2023-03-29T10:00:23.392Z,1.80
2023-03-29T10:02:58.796Z,1.77
2023-03-29T10:05:36.691Z,1.60
2023-03-29T10:08:28.690Z,1.10
2023-03-29T10:11:04.618Z,1.53
2023-03-29T10:13:43.784Z,2.23
2023-03-29T10:16:29.870Z,1.53
2023-03-29T10:19:41.950Z,1.23
2023-03-29T10:22:27.201Z,2.73
2023-03-29T10:25:00.568Z,1.73
2023-03-29T10:27:34.841Z,1.03
2023-03-29T10:30:12.956Z,0.80
2023-03-29T10:32:47.034Z,1.97
2023-03-29T10:35:26.058Z,2.97
2023-03-29T10:37:59.805Z,2.13
2023-03-29T10:40:34.399Z,1.50
2023-03-29T10:43:21.092Z,1.63
2023-03-29T10:46:06.634Z,1.43
2023-03-29T10:48:46.167Z,1.57
2023-03-29T10:51:19.958Z,2.70
2023-03-29T10:53:53.131Z,1.60
2023-03-29T10:56:42.548Z,1.83
2023-03-29T10:59:29.327Z,1.90
2023-03-29T11:02:14.820Z,1.33
2023-03-29T11:04:48.215Z,3.00
2023-03-29T11:07:44.444Z,2.07
2023-03-29T11:10:17.639Z,1.70
2023-03-29T11:13:09.210Z,1.17
2023-03-29T11:15:54.534Z,1.80
2023-03-29T11:18:36.959Z,2.40
2023-03-29T11:21:23.437Z,0.90
2023-03-29T11:24:01.828Z,1.70
2023-03-29T11:26:51.877Z,1.30
2023-03-29T11:29:31.493Z,1.50
2023-03-29T11:32:10.949Z,1.40
2023-03-29T11:35:03.214Z,2.00
2023-03-29T11:37:43.150Z,1.33
2023-03-29T11:40:39.228Z,1.30
2023-03-29T11:43:15.270Z,1.17
2023-03-29T11:45:54.397Z,1.97
2023-03-29T11:48:34.576Z,1.13
2023-03-29T11:51:17.044Z,1.17
2023-03-29T11:53:56.937Z,1.43
2023-03-29T11:56:50.791Z,1.57
2023-03-29T11:59:38.517Z,2.70
2023-03-29T12:02:23.186Z,1.00
2023-03-29T12:04:58.639Z,1.30
2023-03-29T12:07:45.669Z,2.40
2023-03-29T12:10:26.328Z,1.37
2023-03-29T12:13:18.440Z,1.50
2023-03-29T12:15:54.860Z,1.37
2023-03-29T12:18:30.054Z,2.50
2023-03-29T12:21:06.037Z,1.50
2023-03-29T12:23:42.856Z,1.27
2023-03-29T12:26:35.087Z,1.33
2023-03-29T12:29:08.458Z,2.00
2023-03-29T12:31:50.941Z,1.70
2023-03-29T12:34:43.033Z,1.90
2023-03-29T12:37:32.277Z,1.50
2023-03-29T12:40:14.381Z,1.53
2023-03-29T12:42:54.681Z,1.40
2023-03-29T12:45:43.425Z,1.50
2023-03-29T12:48:18.168Z,1.70
2023-03-29T12:50:53.366Z,1.80
2023-03-29T12:53:35.320Z,2.30
2023-03-29T12:56:11.728Z,2.27
2023-03-29T12:59:00.745Z,1.93
2023-03-29T13:01:43.297Z,1.83
2023-03-29T13:04:21.174Z,2.03
2023-03-29T13:07:03.205Z,3.00
2023-03-29T13:09:48.395Z,3.40
2023-03-29T13:12:21.844Z,3.40
2023-03-29T13:14:57.192Z,3.20
2023-03-29T13:17:44.316Z,3.33
2023-03-29T13:20:18.231Z,5.10
2023-03-29T13:23:09.830Z,3.93
2023-03-29T13:25:52.161Z,4.77
2023-03-29T13:28:28.352Z,3.67
2023-03-29T13:31:17.314Z,3.17
2023-03-29T13:33:57.795Z,3.47
2023-03-29T13:36:43.318Z,6.47
2023-03-29T13:39:23.936Z,4.40
2023-03-29T13:42:15.620Z,4.37
2023-03-29T13:44:49.292Z,4.40
2023-03-29T13:47:37.018Z,3.53
2023-03-29T13:50:17.770Z,3.77
2023-03-29T13:52:58.666Z,2.43
2023-03-29T13:55:38.281Z,1.40
2023-03-29T13:58:30.672Z,1.00
2023-03-29T14:01:03.889Z,1.50
2023-03-29T14:03:42.818Z,1.17
2023-03-29T14:06:18.747Z,1.40
2023-03-29T14:08:52.760Z,1.20
2023-03-29T14:11:27.363Z,0.80
2023-03-29T14:14:02.748Z,1.30
2023-03-29T14:16:37.004Z,1.23
2023-03-29T14:19:19.155Z,1.27
2023-03-29T14:21:53.144Z,0.83
2023-03-29T14:24:27.377Z,1.30
2023-03-29T14:27:02.604Z,0.80
2023-03-29T14:29:35.813Z,1.30
2023-03-29T14:32:13.318Z,1.60
2023-03-29T14:34:51.009Z,1.60
2023-03-29T14:37:26.367Z,2.17
2023-03-29T14:39:59.908Z,2.20
2023-03-29T14:42:33.354Z,1.80
2023-03-29T14:45:07.115Z,0.90
2023-03-29T14:47:40.925Z,2.00
2023-03-29T14:50:19.306Z,1.20
2023-03-29T14:52:53.790Z,1.73
2023-03-29T14:55:27.463Z,1.57
2023-03-29T14:58:00.878Z,1.57
2023-03-29T15:00:42.511Z,1.10
2023-03-29T15:03:32.395Z,1.67
2023-03-29T15:06:07.175Z,1.50
2023-03-29T15:08:57.640Z,1.93
2023-03-29T15:11:39.746Z,1.20
2023-03-29T15:14:16.420Z,2.67
2023-03-29T15:16:51.331Z,2.17
2023-03-29T15:19:28.166Z,1.43
2023-03-29T15:22:10.933Z,1.40
2023-03-29T15:24:48.192Z,1.30
2023-03-29T15:27:23.503Z,2.00
2023-03-29T15:30:08.181Z,1.93
2023-03-29T15:32:43.078Z,3.63
2023-03-29T15:35:23.923Z,3.17
2023-03-29T15:38:05.952Z,3.30
2023-03-29T15:40:43.398Z,3.70
2023-03-29T15:43:18.598Z,3.37
2023-03-29T15:45:52.309Z,2.90
2023-03-29T15:48:26.856Z,3.27
2023-03-29T15:51:06.109Z,3.53
2023-03-29T15:53:40.413Z,2.77
2023-03-29T15:56:17.162Z,2.23
2023-03-29T15:58:51.004Z,3.93
2023-03-29T16:01:37.029Z,2.70
2023-03-29T16:04:13.880Z,2.83
2023-03-29T16:06:51.192Z,2.50
2023-03-29T16:09:25.648Z,4.10
2023-03-29T16:12:01.624Z,2.80
2023-03-29T16:14:34.847Z,3.53
2023-03-29T16:17:11.481Z,3.00
2023-03-29T16:19:46.828Z,3.10
2023-03-29T16:22:22.996Z,3.90
2023-03-29T16:25:08.386Z,2.80
2023-03-29T16:27:47.038Z,2.80
2023-03-29T16:30:20.383Z,2.93
2023-03-29T16:32:53.672Z,2.60
2023-03-29T16:35:33.925Z,2.93
2023-03-29T16:38:14.586Z,3.07
2023-03-29T16:40:47.989Z,1.63
2023-03-29T16:43:23.884Z,2.63
2023-03-29T16:45:59.988Z,2.03
2023-03-29T16:48:36.119Z,2.57
2023-03-29T16:51:15.163Z,2.40
2023-03-29T16:53:51.588Z,2.90
2023-03-29T16:56:24.777Z,2.40
2023-03-29T16:58:57.941Z,4.70
2023-03-29T17:01:31.567Z,2.80
2023-03-29T17:04:05.517Z,2.53
2023-03-29T17:06:38.837Z,2.50
2023-03-29T17:09:12.030Z,2.73
2023-03-29T17:11:45.777Z,2.83
2023-03-29T17:14:19.137Z,2.67
2023-03-29T17:16:53.092Z,1.97
2023-03-29T17:19:27.656Z,2.83
2023-03-29T17:22:04.668Z,2.03
2023-03-29T17:24:37.843Z,2.20
2023-03-29T17:27:11.042Z,2.17
2023-03-29T17:29:44.265Z,2.93
2023-03-29T17:32:17.412Z,1.27
2023-03-29T17:34:50.649Z,2.13
2023-03-29T17:37:23.897Z,2.77
2023-03-29T17:39:57.135Z,1.43
2023-03-29T17:42:30.284Z,2.70
2023-03-29T17:45:03.898Z,2.30
2023-03-29T17:47:37.670Z,2.00
2023-03-29T17:50:11.835Z,2.30
2023-03-29T17:52:45.230Z,3.20
2023-03-29T17:55:18.717Z,1.93
2023-03-29T17:57:51.960Z,1.17
2023-03-29T18:00:25.237Z,2.23
2023-03-29T18:02:58.890Z,1.77
2023-03-29T18:05:32.211Z,2.70
2023-03-29T18:08:05.471Z,2.63
2023-03-29T18:10:39.897Z,3.13
2023-03-29T18:13:14.689Z,2.93
2023-03-29T18:15:47.945Z,3.17
2023-03-29T18:18:21.149Z,1.50
2023-03-29T18:20:54.397Z,1.97
2023-03-29T18:23:27.914Z,2.53
2023-03-29T18:26:05.684Z,2.73
2023-03-29T18:28:39.045Z,2.27
2023-03-29T18:31:12.226Z,2.27
2023-03-29T18:33:46.750Z,3.67
2023-03-29T18:36:20.414Z,2.40
2023-03-29T18:38:55.824Z,2.80
2023-03-29T18:41:29.032Z,2.07
2023-03-29T18:44:02.406Z,2.90
2023-03-29T18:46:35.754Z,2.83
2023-03-29T18:49:09.033Z,1.33
2023-03-29T18:51:42.698Z,2.30
2023-03-29T18:54:15.914Z,1.77
2023-03-29T18:56:49.113Z,2.10
2023-03-29T18:59:22.340Z,1.50
2023-03-29T19:01:55.844Z,1.80
2023-03-29T19:04:29.209Z,2.93
2023-03-29T19:07:03.493Z,1.80
2023-03-29T19:09:36.949Z,1.60
2023-03-29T19:12:10.486Z,1.77
2023-03-29T19:14:43.742Z,1.90
2023-03-29T19:17:16.963Z,2.30
2023-03-29T19:19:50.380Z,1.80
2023-03-29T19:22:23.713Z,1.83
2023-03-29T19:24:57.053Z,1.90
2023-03-29T19:27:30.532Z,1.63
2023-03-29T19:30:04.281Z,1.30
2023-03-29T19:32:37.548Z,1.27
2023-03-29T19:35:12.706Z,2.17
2023-03-29T19:37:45.889Z,1.77
2023-03-29T19:40:19.990Z,2.10
2023-03-29T19:42:53.238Z,1.00
2023-03-29T19:45:27.861Z,1.93
2023-03-29T19:48:03.345Z,1.43
2023-03-29T19:50:39.539Z,1.37
2023-03-29T19:53:13.443Z,1.90
2023-03-29T19:55:46.633Z,1.33
2023-03-29T19:58:19.862Z,1.60
2023-03-29T20:00:53.291Z,1.10
2023-03-29T20:03:29.873Z,1.20
2023-03-29T20:06:03.254Z,1.20
2023-03-29T20:08:38.908Z,1.57
2023-03-29T20:11:13.549Z,1.27
2023-03-29T20:13:46.821Z,1.40
2023-03-29T20:16:20.104Z,1.30
2023-03-29T20:18:53.974Z,1.30
2023-03-29T20:21:27.190Z,1.20
2023-03-29T20:24:00.667Z,1.10
2023-03-29T20:26:34.199Z,1.93
2023-03-29T20:29:07.969Z,1.60
2023-03-29T20:31:41.345Z,0.97
2023-03-29T20:34:14.716Z,1.50
2023-03-29T20:36:49.828Z,1.90
2023-03-29T20:39:25.572Z,1.03
2023-03-29T20:42:00.510Z,1.57
2023-03-29T20:44:35.332Z,1.50
2023-03-29T20:47:14.084Z,0.97
2023-03-29T20:49:47.335Z,1.10
2023-03-29T20:52:21.594Z,1.40
2023-03-29T20:54:54.816Z,1.20
2023-03-29T20:57:30.312Z,1.83
2023-03-29T21:00:11.899Z,1.30
2023-03-29T21:02:45.283Z,1.97
2023-03-29T21:05:19.232Z,0.97
2023-03-29T21:07:54.683Z,1.00
2023-03-29T21:10:28.337Z,0.97
2023-03-29T21:13:02.433Z,1.20
2023-03-29T21:15:36.777Z,1.10
2023-03-29T21:18:10.073Z,1.77
2023-03-29T21:20:44.810Z,1.20
2023-03-29T21:23:18.161Z,1.03
2023-03-29T21:25:51.418Z,1.30
2023-03-29T21:28:24.668Z,1.57
2023-03-29T21:30:57.899Z,1.90
2023-03-29T21:33:31.134Z,1.13
2023-03-29T21:36:04.893Z,1.53
2023-03-29T21:38:38.128Z,1.10
2023-03-29T21:41:12.072Z,1.10
2023-03-29T21:43:45.405Z,1.70
2023-03-29T21:46:18.677Z,0.87
2023-03-29T21:48:52.265Z,1.57
2023-03-29T21:51:25.555Z,0.80
2023-03-29T21:53:58.777Z,1.00
2023-03-29T21:56:31.992Z,1.40
2023-03-29T21:59:05.231Z,0.90
2023-03-29T22:01:38.401Z,1.07
2023-03-29T22:04:12.335Z,0.90
2023-03-29T22:06:47.446Z,1.30
2023-03-29T22:09:20.594Z,2.00
2023-03-29T22:11:53.867Z,1.57
2023-03-29T22:14:29.352Z,1.03
2023-03-29T22:17:05.638Z,1.10
2023-03-29T22:19:39.724Z,0.90
2023-03-29T22:22:14.667Z,1.33
2023-03-29T22:24:47.897Z,1.33
2023-03-29T22:27:21.950Z,1.30
2023-03-29T22:29:55.179Z,2.00
2023-03-29T22:32:32.252Z,1.50
2023-03-29T22:35:05.643Z,1.17
2023-03-29T22:37:42.850Z,1.20
2023-03-29T22:40:16.406Z,1.40
2023-03-29T22:42:49.630Z,1.17
2023-03-29T22:45:22.820Z,0.90
2023-03-29T22:47:56.150Z,1.00
2023-03-29T22:50:29.370Z,1.00
2023-03-29T22:53:02.655Z,1.40
2023-03-29T22:55:36.074Z,1.87
2023-03-29T22:58:09.296Z,0.67
2023-03-29T23:00:42.491Z,1.00
2023-03-29T23:03:15.781Z,1.00
2023-03-29T23:05:52.418Z,1.90
2023-03-29T23:08:26.453Z,1.07
2023-03-29T23:11:00.368Z,1.30
2023-03-29T23:13:35.109Z,1.33
2023-03-29T23:16:08.461Z,0.70
2023-03-29T23:18:42.236Z,2.07
2023-03-29T23:21:16.184Z,1.27
2023-03-29T23:23:49.548Z,1.33
2023-03-29T23:26:23.158Z,1.90
2023-03-29T23:28:57.444Z,1.57
2023-03-29T23:31:30.695Z,1.67
2023-03-29T23:34:03.917Z,1.73
2023-03-29T23:36:37.071Z,2.07
2023-03-29T23:39:10.381Z,1.40
2023-03-29T23:41:43.626Z,2.20
2023-03-29T23:44:16.964Z,2.53
2023-03-29T23:46:50.213Z,1.23
2023-03-29T23:49:24.080Z,1.77
2023-03-29T23:51:59.976Z,1.60
2023-03-29T23:54:33.225Z,1.40
2023-03-29T23:57:06.471Z,1.20
2023-03-29T23:59:40.085Z,1.63
